EIDL

Details ICAO EIDL (CFN)
Name Donegal
Region Ireland
Timezone Unknown
Plans Departing 43
Arriving 64
Stats Elevation 30 ft / 9 m (AMSL)
Location 55.044200° -8.340990°
Runways 1
Magnetic Variation 4.048° W
Sunrise 2018-11-13 08:02:33 UTC / 2018-11-13 08:02:33 Local
Sunset 2018-11-13 16:35:28 UTC / 2018-11-13 16:35:28 Local
Advertisement - Login to hide

Runways

ID Width Length Bearing (true/mag) Surface Threshold Overrun Markings Lighting
03 98 ft / 30 m 4,903 ft / 1,494 m 20.37° / 24.41° ASPHALT 679 ft / 207 m 0 ft / 0 m APP EDGE THRESHOLD MALS
21 98 ft / 30 m 4,903 ft / 1,494 m 200.37° / 204.42° ASPHALT 423 ft / 129 m 0 ft / 0 m APP EDGE THRESHOLD MALS

Approach Navaids

Runway Type Ident Frequency Range Bearing (true/mag) Slope Elevation
21 LOC-LOC IFN 110.30 MHz 18 nm / 33 km 200.16° / 204.21° - 29 ft / 9 m (AMSL)
21 DME IFN 110.30 MHz 18 nm / 33 km - - 33 ft / 10 m (AMSL)

Map

Weather


0- 5 10 15 20 25 30 35+ Temperature / °C

Clouds and Precipitation
Forecast for 2018-11-13 18:00 UTC. Updated 3 hours ago

Ground ~20,000 ft ~40,000 ft Winds

METAR

EIDL 131830Z 18017KT 9999 BKN022 BKN026 OVC038 11/09 Q1008

TAF

Not found

Frequencies

Ground 129.80 MHz
Recorded 129.92 MHz ATIS
Tower 129.80 MHz
Warning: Do not use this data for real-world aviation or navigation. No guarantee of current accuracy is given.